createdAt,value
2018-06-28T00:03:04.105Z,99.90
2018-06-28T00:09:10.389Z,99.90
2018-06-28T00:15:16.127Z,99.90
2018-06-28T00:21:22.404Z,99.90
2018-06-28T00:27:28.330Z,99.90
2018-06-28T00:33:34.203Z,99.90
2018-06-28T00:39:40.124Z,99.90
2018-06-28T00:45:45.775Z,99.90
2018-06-28T00:51:52.604Z,99.90
2018-06-28T00:57:58.552Z,99.90
2018-06-28T01:04:04.387Z,99.90
2018-06-28T01:10:10.136Z,99.90
2018-06-28T01:16:16.103Z,99.90
2018-06-28T01:22:21.878Z,99.90
2018-06-28T01:28:27.726Z,99.90
2018-06-28T01:34:33.829Z,99.90
2018-06-28T01:40:39.542Z,99.90
2018-06-28T01:46:45.613Z,99.90
2018-06-28T01:52:51.901Z,99.90
2018-06-28T01:58:57.566Z,99.90
2018-06-28T02:05:03.985Z,99.90
2018-06-28T02:11:09.933Z,99.90
2018-06-28T02:17:15.972Z,99.90
2018-06-28T02:23:22.053Z,99.90
2018-06-28T02:29:28.282Z,99.90
2018-06-28T02:35:34.022Z,99.90
2018-06-28T02:41:39.695Z,99.90
2018-06-28T02:47:45.611Z,99.90
2018-06-28T02:53:52.359Z,99.90
2018-06-28T02:59:58.085Z,99.90
2018-06-28T03:06:04.114Z,99.90
2018-06-28T03:12:09.877Z,99.90
2018-06-28T03:18:15.757Z,99.90
2018-06-28T03:24:22.282Z,99.90
2018-06-28T03:30:28.339Z,99.90
2018-06-28T03:36:34.079Z,99.90
2018-06-28T03:42:40.021Z,99.90
2018-06-28T03:48:45.970Z,99.90
2018-06-28T03:54:52.562Z,99.90
2018-06-28T04:00:58.324Z,99.90
2018-06-28T04:07:04.409Z,99.90
2018-06-28T04:13:10.359Z,99.90
2018-06-28T04:19:16.068Z,99.90
2018-06-28T04:25:23.971Z,99.90
2018-06-28T04:31:29.883Z,99.90
2018-06-28T04:37:35.509Z,99.90
2018-06-28T04:43:41.428Z,99.90
2018-06-28T04:49:47.287Z,99.90
2018-06-28T04:55:53.954Z,99.90
2018-06-28T05:01:59.723Z,99.90
2018-06-28T05:08:05.435Z,99.90
2018-06-28T05:14:11.292Z,99.90
2018-06-28T05:20:17.121Z,99.90
2018-06-28T05:26:23.284Z,99.90
2018-06-28T05:32:29.110Z,99.90
2018-06-28T05:38:34.784Z,99.90
2018-06-28T05:50:45.789Z,99.90
2018-06-28T05:56:52.071Z,99.90
2018-06-28T06:02:57.923Z,99.90
2018-06-28T06:09:04.194Z,99.90
2018-06-28T06:15:09.908Z,99.90
2018-06-28T06:21:15.632Z,99.90
2018-06-28T06:27:22.755Z,99.90
2018-06-28T06:33:29.181Z,99.90
2018-06-28T06:45:40.837Z,99.90
2018-06-28T06:51:47.170Z,99.90
2018-06-28T06:57:53.392Z,99.90
2018-06-28T07:03:59.216Z,99.90
2018-06-28T07:10:05.037Z,99.90
2018-06-28T07:16:10.625Z,99.90
2018-06-28T07:22:16.309Z,99.90
2018-06-28T07:28:23.167Z,99.90
2018-06-28T07:34:28.836Z,99.90
2018-06-28T07:40:34.913Z,99.90
2018-06-28T07:46:40.548Z,99.90
2018-06-28T07:52:46.353Z,99.90
2018-06-28T07:58:52.425Z,99.90
2018-06-28T08:04:58.231Z,99.90
2018-06-28T08:11:03.898Z,99.90
2018-06-28T08:17:10.063Z,99.90
2018-06-28T08:23:15.831Z,99.90
2018-06-28T08:29:21.592Z,99.90
2018-06-28T08:35:28.032Z,99.90
2018-06-28T08:41:33.763Z,99.70
2018-06-28T08:47:39.515Z,99.40
2018-06-28T08:53:45.512Z,99.00
2018-06-28T08:59:51.304Z,98.10
2018-06-28T09:05:57.087Z,98.50
2018-06-28T09:12:02.861Z,97.10
2018-06-28T09:18:09.063Z,96.50
2018-06-28T09:24:14.724Z,95.90
2018-06-28T09:30:21.460Z,94.20
2018-06-28T09:36:27.662Z,95.00
2018-06-28T09:42:33.317Z,92.60
2018-06-28T09:48:39.448Z,90.80
2018-06-28T09:54:45.144Z,90.40
2018-06-28T10:00:51.413Z,91.60
2018-06-28T10:06:57.406Z,90.50
2018-06-28T10:13:03.263Z,87.70
2018-06-28T10:19:09.319Z,87.90
2018-06-28T10:25:15.314Z,89.80
2018-06-28T10:31:22.241Z,84.40
2018-06-28T10:37:28.547Z,80.60
2018-06-28T10:43:34.796Z,85.60
2018-06-28T10:55:46.390Z,82.40
2018-06-28T11:01:53.598Z,84.00
2018-06-28T11:07:59.498Z,79.20
2018-06-28T11:14:05.476Z,79.90
2018-06-28T11:20:11.253Z,83.90
2018-06-28T11:26:17.084Z,76.60
2018-06-28T11:32:23.680Z,75.10
2018-06-28T11:38:29.369Z,71.90
2018-06-28T11:44:35.063Z,73.90
2018-06-28T11:50:40.854Z,72.20
2018-06-28T11:56:46.733Z,66.10
2018-06-28T12:02:52.523Z,67.10
2018-06-28T12:08:58.287Z,63.10
2018-06-28T12:15:04.222Z,63.30
2018-06-28T12:21:10.055Z,62.40
2018-06-28T12:27:15.820Z,62.10
2018-06-28T12:33:22.602Z,60.70
2018-06-28T12:39:28.509Z,59.80
2018-06-28T12:45:34.265Z,59.30
2018-06-28T12:53:03.985Z,55.60
2018-06-28T12:59:12.163Z,57.20
2018-06-28T13:05:18.293Z,56.70
2018-06-28T13:11:26.011Z,54.50
2018-06-28T13:17:31.822Z,54.80
2018-06-28T13:23:37.906Z,52.40
2018-06-28T13:29:43.599Z,53.10
2018-06-28T13:35:49.803Z,53.00
2018-06-28T13:41:56.120Z,50.70
2018-06-28T13:48:01.789Z,51.40
2018-06-28T13:54:08.091Z,50.50
2018-06-28T14:00:13.777Z,52.20
2018-06-28T14:06:19.958Z,50.30
2018-06-28T14:12:26.333Z,47.80
2018-06-28T14:18:31.966Z,48.10
2018-06-28T14:24:37.752Z,47.20
2018-06-28T14:30:43.481Z,47.40
2018-06-28T14:36:49.173Z,47.60
2018-06-28T14:42:54.857Z,46.70
2018-06-28T14:49:00.582Z,46.30
2018-06-28T14:55:07.012Z,45.70
2018-06-28T15:01:12.954Z,46.40
2018-06-28T15:07:19.093Z,47.90
2018-06-28T15:13:24.721Z,50.70
2018-06-28T15:19:30.372Z,52.00
2018-06-28T15:25:36.260Z,50.40
2018-06-28T15:31:41.928Z,49.20
2018-06-28T15:37:48.086Z,48.30
2018-06-28T15:43:53.997Z,50.70
2018-06-28T15:49:59.738Z,48.90
2018-06-28T15:56:06.439Z,51.50
2018-06-28T16:02:12.127Z,53.60
2018-06-28T16:08:17.834Z,53.50
2018-06-28T16:14:24.109Z,51.90
2018-06-28T16:20:29.853Z,52.10
2018-06-28T16:26:36.258Z,49.50
2018-06-28T16:32:42.181Z,49.40
2018-06-28T16:38:48.200Z,48.70
2018-06-28T16:44:55.307Z,48.60
2018-06-28T16:51:01.076Z,48.80
2018-06-28T16:57:06.984Z,50.60
2018-06-28T17:03:15.939Z,51.10
2018-06-28T17:09:22.303Z,50.00
2018-06-28T17:15:28.027Z,46.60
2018-06-28T17:21:33.849Z,43.50
2018-06-28T17:27:39.717Z,43.10
2018-06-28T17:33:45.773Z,43.00
2018-06-28T17:39:51.989Z,42.00
2018-06-28T17:45:57.950Z,42.90
2018-06-28T17:52:03.897Z,48.60
2018-06-28T17:58:09.560Z,50.50
2018-06-28T18:04:15.254Z,53.20
2018-06-28T18:10:21.091Z,55.40
2018-06-28T18:16:26.790Z,52.90
2018-06-28T18:22:32.450Z,54.50
2018-06-28T18:28:38.337Z,55.30
2018-06-28T18:34:43.971Z,54.90
2018-06-28T18:40:49.682Z,53.10
2018-06-28T18:46:55.685Z,51.90
2018-06-28T18:53:01.493Z,51.90
2018-06-28T18:59:07.176Z,52.30
2018-06-28T19:05:12.918Z,54.60
2018-06-28T19:11:18.736Z,56.00
2018-06-28T19:17:25.365Z,58.10
2018-06-28T19:23:36.081Z,58.30
2018-06-28T19:29:47.418Z,59.40
2018-06-28T19:35:54.265Z,59.60
2018-06-28T19:42:04.968Z,60.10
2018-06-28T19:48:10.646Z,61.50
2018-06-28T19:54:16.412Z,63.10
2018-06-28T20:00:27.821Z,63.10
2018-06-28T20:06:33.555Z,65.00
2018-06-28T20:12:44.757Z,67.00
2018-06-28T20:18:56.217Z,68.10
2018-06-28T20:25:02.105Z,70.60
2018-06-28T20:31:13.176Z,72.60
2018-06-28T20:37:19.445Z,72.80
2018-06-28T20:43:26.475Z,73.20
2018-06-28T20:49:32.348Z,75.40
2018-06-28T20:55:38.260Z,75.70
2018-06-28T21:01:43.954Z,75.30
2018-06-28T21:07:49.811Z,75.80
2018-06-28T21:13:55.826Z,76.40
2018-06-28T21:20:01.623Z,77.50
2018-06-28T21:26:07.413Z,77.70
2018-06-28T21:32:13.208Z,80.50
2018-06-28T21:38:18.913Z,81.30
2018-06-28T21:44:26.135Z,82.70
2018-06-28T21:50:31.952Z,84.00
2018-06-28T21:56:37.668Z,85.40
2018-06-28T22:02:43.475Z,87.10
2018-06-28T22:08:49.530Z,89.30
2018-06-28T22:14:55.515Z,90.50
2018-06-28T22:21:01.168Z,91.90
2018-06-28T22:33:12.327Z,93.80
2018-06-28T22:39:18.181Z,94.90
2018-06-28T22:45:24.846Z,96.10
2018-06-28T22:51:30.540Z,97.20
2018-06-28T22:57:36.257Z,98.50
2018-06-28T23:03:42.038Z,99.90
2018-06-28T23:09:47.833Z,99.90
2018-06-28T23:15:54.051Z,99.90
2018-06-28T23:21:59.725Z,99.90
2018-06-28T23:28:05.491Z,99.90
2018-06-28T23:34:11.390Z,99.90
2018-06-28T23:40:17.150Z,99.90
2018-06-28T23:46:23.691Z,99.90
2018-06-28T23:52:29.434Z,99.90
2018-06-28T23:58:35.476Z,99.90
